Terminal Aerodrome Forecast
Issued by NWS Cleveland, OH

Home | Current Version | Previous Version | Graphics & Text | Print | Product List | Glossary On
Versions: 1 2 3 4 5 6 7 8 9 10 11 12 13 14 15 16
000
FTUS41 KCLE 092053 AAA
TAFYNG
TAF AMD
KYNG 092053Z 0921/1018 25012G18KT 5SM -SHSN OVC025
      TEMPO 0921/1001 2SM -SHSN OVC015
     FM100300 26010KT 3SM -SHSN OVC012=

USA.gov is the U.S. government's official web portal to all federal, state and local government web resources and services.